sensor_id;sensor_type;location;lat;lon;timestamp;temperature;humidity
8103;DHT22;4094;49.948;11.574;2023-02-24T00:02:13;12.80;74.60
8103;DHT22;4094;49.948;11.574;2023-02-24T00:04:47;12.80;74.60
8103;DHT22;4094;49.948;11.574;2023-02-24T00:07:18;12.80;74.60
8103;DHT22;4094;49.948;11.574;2023-02-24T00:09:48;12.80;74.70
8103;DHT22;4094;49.948;11.574;2023-02-24T00:12:17;12.80;74.70
8103;DHT22;4094;49.948;11.574;2023-02-24T00:14:47;12.80;74.70
8103;DHT22;4094;49.948;11.574;2023-02-24T00:17:16;12.80;74.70
8103;DHT22;4094;49.948;11.574;2023-02-24T00:19:46;12.80;74.70
8103;DHT22;4094;49.948;11.574;2023-02-24T00:22:16;12.80;74.90
8103;DHT22;4094;49.948;11.574;2023-02-24T00:24:45;12.80;74.80
8103;DHT22;4094;49.948;11.574;2023-02-24T00:27:14;12.80;74.80
8103;DHT22;4094;49.948;11.574;2023-02-24T00:29:44;12.80;74.80
8103;DHT22;4094;49.948;11.574;2023-02-24T00:32:14;12.80;74.80
8103;DHT22;4094;49.948;11.574;2023-02-24T00:34:43;12.80;74.80
8103;DHT22;4094;49.948;11.574;2023-02-24T00:37:14;12.80;74.80
8103;DHT22;4094;49.948;11.574;2023-02-24T00:39:44;12.80;74.80
8103;DHT22;4094;49.948;11.574;2023-02-24T00:42:13;12.80;74.80
8103;DHT22;4094;49.948;11.574;2023-02-24T00:44:44;12.80;74.90
8103;DHT22;4094;49.948;11.574;2023-02-24T00:47:15;12.80;74.90
8103;DHT22;4094;49.948;11.574;2023-02-24T00:49:45;12.80;74.90
8103;DHT22;4094;49.948;11.574;2023-02-24T00:52:17;12.70;74.80
8103;DHT22;4094;49.948;11.574;2023-02-24T00:54:48;12.70;74.80
8103;DHT22;4094;49.948;11.574;2023-02-24T00:57:17;12.70;74.80
8103;DHT22;4094;49.948;11.574;2023-02-24T00:59:49;12.70;74.90
8103;DHT22;4094;49.948;11.574;2023-02-24T01:02:19;12.70;74.80
8103;DHT22;4094;49.948;11.574;2023-02-24T01:04:48;12.70;74.80
8103;DHT22;4094;49.948;11.574;2023-02-24T01:07:18;12.70;74.90
8103;DHT22;4094;49.948;11.574;2023-02-24T01:09:49;12.70;74.80
8103;DHT22;4094;49.948;11.574;2023-02-24T01:12:18;12.70;74.90
8103;DHT22;4094;49.948;11.574;2023-02-24T01:15:06;12.70;75.00
8103;DHT22;4094;49.948;11.574;2023-02-24T01:17:39;12.70;75.00
8103;DHT22;4094;49.948;11.574;2023-02-24T01:20:11;12.70;74.80
8103;DHT22;4094;49.948;11.574;2023-02-24T01:22:48;12.70;75.00
8103;DHT22;4094;49.948;11.574;2023-02-24T01:25:17;12.70;74.90
8103;DHT22;4094;49.948;11.574;2023-02-24T01:27:47;12.70;74.90
8103;DHT22;4094;49.948;11.574;2023-02-24T01:30:17;12.70;74.80
8103;DHT22;4094;49.948;11.574;2023-02-24T01:32:47;12.70;74.80
8103;DHT22;4094;49.948;11.574;2023-02-24T01:35:17;12.70;74.80
8103;DHT22;4094;49.948;11.574;2023-02-24T01:37:49;12.60;74.80
8103;DHT22;4094;49.948;11.574;2023-02-24T01:40:18;12.60;74.70
8103;DHT22;4094;49.948;11.574;2023-02-24T01:42:48;12.60;74.70
8103;DHT22;4094;49.948;11.574;2023-02-24T01:45:21;12.60;74.80
8103;DHT22;4094;49.948;11.574;2023-02-24T01:47:52;12.60;74.80
8103;DHT22;4094;49.948;11.574;2023-02-24T01:50:22;12.60;74.70
8103;DHT22;4094;49.948;11.574;2023-02-24T01:52:56;12.70;74.70
8103;DHT22;4094;49.948;11.574;2023-02-24T01:55:29;12.60;74.70
8103;DHT22;4094;49.948;11.574;2023-02-24T01:58:05;12.60;74.80
8103;DHT22;4094;49.948;11.574;2023-02-24T02:00:37;12.60;74.80
8103;DHT22;4094;49.948;11.574;2023-02-24T02:03:21;12.60;74.80
8103;DHT22;4094;49.948;11.574;2023-02-24T02:05:54;12.50;74.80
8103;DHT22;4094;49.948;11.574;2023-02-24T02:08:27;12.50;74.70
8103;DHT22;4094;49.948;11.574;2023-02-24T02:11:02;12.60;74.70
8103;DHT22;4094;49.948;11.574;2023-02-24T02:13:35;12.50;74.70
8103;DHT22;4094;49.948;11.574;2023-02-24T02:16:21;12.50;74.80
8103;DHT22;4094;49.948;11.574;2023-02-24T02:19:00;12.50;74.80
8103;DHT22;4094;49.948;11.574;2023-02-24T02:21:59;12.50;74.80
8103;DHT22;4094;49.948;11.574;2023-02-24T02:24:48;12.50;74.80
8103;DHT22;4094;49.948;11.574;2023-02-24T02:31:05;12.40;74.80
8103;DHT22;4094;49.948;11.574;2023-02-24T02:34:14;12.40;74.90
8103;DHT22;4094;49.948;11.574;2023-02-24T02:36:53;12.40;75.00
8103;DHT22;4094;49.948;11.574;2023-02-24T02:39:31;12.40;75.00
8103;DHT22;4094;49.948;11.574;2023-02-24T02:42:08;12.40;75.00
8103;DHT22;4094;49.948;11.574;2023-02-24T02:44:48;12.40;75.10
8103;DHT22;4094;49.948;11.574;2023-02-24T02:47:26;12.40;75.20
8103;DHT22;4094;49.948;11.574;2023-02-24T02:50:07;12.40;75.20
8103;DHT22;4094;49.948;11.574;2023-02-24T02:52:41;12.40;75.10
8103;DHT22;4094;49.948;11.574;2023-02-24T02:55:14;12.30;75.00
8103;DHT22;4094;49.948;11.574;2023-02-24T02:57:47;12.40;75.00
8103;DHT22;4094;49.948;11.574;2023-02-24T03:00:21;12.30;74.90
8103;DHT22;4094;49.948;11.574;2023-02-24T03:02:55;12.30;75.00
8103;DHT22;4094;49.948;11.574;2023-02-24T03:05:29;12.30;75.00
8103;DHT22;4094;49.948;11.574;2023-02-24T03:08:01;12.30;75.00
8103;DHT22;4094;49.948;11.574;2023-02-24T03:10:33;12.30;75.00
8103;DHT22;4094;49.948;11.574;2023-02-24T03:13:05;12.30;75.00
8103;DHT22;4094;49.948;11.574;2023-02-24T03:15:36;12.30;75.00
8103;DHT22;4094;49.948;11.574;2023-02-24T03:18:15;12.30;75.00
8103;DHT22;4094;49.948;11.574;2023-02-24T03:20:50;12.30;75.00
8103;DHT22;4094;49.948;11.574;2023-02-24T03:23:24;12.30;75.00
8103;DHT22;4094;49.948;11.574;2023-02-24T03:25:57;12.30;75.00
8103;DHT22;4094;49.948;11.574;2023-02-24T03:28:34;12.30;75.00
8103;DHT22;4094;49.948;11.574;2023-02-24T03:31:08;12.30;75.00
8103;DHT22;4094;49.948;11.574;2023-02-24T03:33:40;12.30;74.90
8103;DHT22;4094;49.948;11.574;2023-02-24T03:36:12;12.20;74.90
8103;DHT22;4094;49.948;11.574;2023-02-24T03:38:42;12.20;74.80
8103;DHT22;4094;49.948;11.574;2023-02-24T03:41:17;12.20;74.80
8103;DHT22;4094;49.948;11.574;2023-02-24T03:43:48;12.20;74.80
8103;DHT22;4094;49.948;11.574;2023-02-24T03:46:18;12.20;74.70
8103;DHT22;4094;49.948;11.574;2023-02-24T03:48:52;12.20;74.70
8103;DHT22;4094;49.948;11.574;2023-02-24T03:51:24;12.20;74.60
8103;DHT22;4094;49.948;11.574;2023-02-24T03:54:02;12.20;74.40
8103;DHT22;4094;49.948;11.574;2023-02-24T03:56:44;12.20;74.30
8103;DHT22;4094;49.948;11.574;2023-02-24T03:59:24;12.10;74.00
8103;DHT22;4094;49.948;11.574;2023-02-24T04:02:04;12.10;73.90
8103;DHT22;4094;49.948;11.574;2023-02-24T04:04:46;12.10;73.80
8103;DHT22;4094;49.948;11.574;2023-02-24T04:07:37;12.10;73.70
8103;DHT22;4094;49.948;11.574;2023-02-24T04:10:11;12.10;73.80
8103;DHT22;4094;49.948;11.574;2023-02-24T04:12:52;12.10;73.80
8103;DHT22;4094;49.948;11.574;2023-02-24T04:15:26;12.10;73.90
8103;DHT22;4094;49.948;11.574;2023-02-24T04:18:00;12.10;73.90
8103;DHT22;4094;49.948;11.574;2023-02-24T04:20:36;12.00;73.80
8103;DHT22;4094;49.948;11.574;2023-02-24T04:23:12;12.00;73.80
8103;DHT22;4094;49.948;11.574;2023-02-24T04:25:46;12.00;73.60
8103;DHT22;4094;49.948;11.574;2023-02-24T04:28:18;12.00;73.60
8103;DHT22;4094;49.948;11.574;2023-02-24T04:30:54;12.00;73.50
8103;DHT22;4094;49.948;11.574;2023-02-24T04:33:23;12.00;73.50
8103;DHT22;4094;49.948;11.574;2023-02-24T04:35:53;12.00;73.50
8103;DHT22;4094;49.948;11.574;2023-02-24T04:38:24;12.00;73.50
8103;DHT22;4094;49.948;11.574;2023-02-24T04:40:53;12.00;73.50
8103;DHT22;4094;49.948;11.574;2023-02-24T04:43:24;12.00;73.60
8103;DHT22;4094;49.948;11.574;2023-02-24T04:45:53;12.00;73.70
8103;DHT22;4094;49.948;11.574;2023-02-24T04:48:22;12.00;73.80
8103;DHT22;4094;49.948;11.574;2023-02-24T04:50:51;12.00;73.80
8103;DHT22;4094;49.948;11.574;2023-02-24T04:53:22;12.00;73.80
8103;DHT22;4094;49.948;11.574;2023-02-24T04:55:55;12.00;73.90
8103;DHT22;4094;49.948;11.574;2023-02-24T04:58:25;12.00;73.80
8103;DHT22;4094;49.948;11.574;2023-02-24T05:00:55;11.90;73.60
8103;DHT22;4094;49.948;11.574;2023-02-24T05:03:25;12.00;73.60
8103;DHT22;4094;49.948;11.574;2023-02-24T05:05:58;12.00;73.60
8103;DHT22;4094;49.948;11.574;2023-02-24T05:08:29;11.90;73.50
8103;DHT22;4094;49.948;11.574;2023-02-24T05:11:00;11.90;73.50
8103;DHT22;4094;49.948;11.574;2023-02-24T05:13:31;11.90;73.40
8103;DHT22;4094;49.948;11.574;2023-02-24T05:16:04;11.90;73.50
8103;DHT22;4094;49.948;11.574;2023-02-24T05:18:34;11.90;73.50
8103;DHT22;4094;49.948;11.574;2023-02-24T05:21:06;11.90;73.40
8103;DHT22;4094;49.948;11.574;2023-02-24T05:23:56;11.90;73.30
8103;DHT22;4094;49.948;11.574;2023-02-24T05:26:27;11.90;73.30
8103;DHT22;4094;49.948;11.574;2023-02-24T05:28:59;11.80;73.20
8103;DHT22;4094;49.948;11.574;2023-02-24T05:31:29;11.80;73.30
8103;DHT22;4094;49.948;11.574;2023-02-24T05:34:00;11.80;73.40
8103;DHT22;4094;49.948;11.574;2023-02-24T05:36:32;11.80;73.50
8103;DHT22;4094;49.948;11.574;2023-02-24T05:39:01;11.80;73.50
8103;DHT22;4094;49.948;11.574;2023-02-24T05:41:37;11.80;73.60
8103;DHT22;4094;49.948;11.574;2023-02-24T05:44:10;11.80;73.60
8103;DHT22;4094;49.948;11.574;2023-02-24T05:46:41;11.80;73.60
8103;DHT22;4094;49.948;11.574;2023-02-24T05:49:12;11.70;73.60
8103;DHT22;4094;49.948;11.574;2023-02-24T05:51:41;11.70;73.70
8103;DHT22;4094;49.948;11.574;2023-02-24T05:54:22;11.70;73.70
8103;DHT22;4094;49.948;11.574;2023-02-24T05:56:54;11.70;73.80
8103;DHT22;4094;49.948;11.574;2023-02-24T05:59:25;11.70;73.80
8103;DHT22;4094;49.948;11.574;2023-02-24T06:02:00;11.70;73.90
8103;DHT22;4094;49.948;11.574;2023-02-24T06:04:35;11.70;74.10
8103;DHT22;4094;49.948;11.574;2023-02-24T06:07:15;11.70;73.90
8103;DHT22;4094;49.948;11.574;2023-02-24T06:09:47;11.80;73.80
8103;DHT22;4094;49.948;11.574;2023-02-24T06:12:19;11.70;73.70
8103;DHT22;4094;49.948;11.574;2023-02-24T06:14:49;11.80;73.50
8103;DHT22;4094;49.948;11.574;2023-02-24T06:17:20;11.80;73.40
8103;DHT22;4094;49.948;11.574;2023-02-24T06:19:51;11.70;73.30
8103;DHT22;4094;49.948;11.574;2023-02-24T06:22:22;11.80;73.40
8103;DHT22;4094;49.948;11.574;2023-02-24T06:24:52;11.80;73.20
8103;DHT22;4094;49.948;11.574;2023-02-24T06:27:23;11.70;73.10
8103;DHT22;4094;49.948;11.574;2023-02-24T06:29:53;11.70;72.90
8103;DHT22;4094;49.948;11.574;2023-02-24T06:32:24;11.80;73.00
8103;DHT22;4094;49.948;11.574;2023-02-24T06:34:54;11.80;73.00
8103;DHT22;4094;49.948;11.574;2023-02-24T06:37:24;11.80;72.90
8103;DHT22;4094;49.948;11.574;2023-02-24T06:39:53;11.80;72.90
8103;DHT22;4094;49.948;11.574;2023-02-24T06:42:23;11.80;72.90
8103;DHT22;4094;49.948;11.574;2023-02-24T06:44:52;11.80;72.90
8103;DHT22;4094;49.948;11.574;2023-02-24T06:47:21;11.70;72.80
8103;DHT22;4094;49.948;11.574;2023-02-24T06:49:50;11.70;72.80
8103;DHT22;4094;49.948;11.574;2023-02-24T06:52:19;11.80;72.80
8103;DHT22;4094;49.948;11.574;2023-02-24T06:54:48;11.80;72.60
8103;DHT22;4094;49.948;11.574;2023-02-24T06:57:18;11.80;72.60
8103;DHT22;4094;49.948;11.574;2023-02-24T06:59:51;11.80;73.20
8103;DHT22;4094;49.948;11.574;2023-02-24T07:02:22;11.80;72.30
8103;DHT22;4094;49.948;11.574;2023-02-24T07:04:56;11.80;72.30
8103;DHT22;4094;49.948;11.574;2023-02-24T07:07:25;11.70;72.30
8103;DHT22;4094;49.948;11.574;2023-02-24T07:09:55;11.80;72.40
8103;DHT22;4094;49.948;11.574;2023-02-24T07:12:24;11.70;72.30
8103;DHT22;4094;49.948;11.574;2023-02-24T07:14:55;11.80;72.30
8103;DHT22;4094;49.948;11.574;2023-02-24T07:17:24;11.70;72.30
8103;DHT22;4094;49.948;11.574;2023-02-24T07:19:53;11.70;72.20
8103;DHT22;4094;49.948;11.574;2023-02-24T07:22:23;11.80;72.20
8103;DHT22;4094;49.948;11.574;2023-02-24T07:24:52;11.70;72.20
8103;DHT22;4094;49.948;11.574;2023-02-24T07:27:27;11.70;72.20
8103;DHT22;4094;49.948;11.574;2023-02-24T07:29:58;11.80;72.20
8103;DHT22;4094;49.948;11.574;2023-02-24T07:32:32;11.70;72.10
8103;DHT22;4094;49.948;11.574;2023-02-24T07:35:02;11.70;72.20
8103;DHT22;4094;49.948;11.574;2023-02-24T07:37:32;11.70;72.20
8103;DHT22;4094;49.948;11.574;2023-02-24T07:40:01;11.70;72.30
8103;DHT22;4094;49.948;11.574;2023-02-24T07:42:34;11.80;72.30
8103;DHT22;4094;49.948;11.574;2023-02-24T07:45:09;11.80;72.20
8103;DHT22;4094;49.948;11.574;2023-02-24T07:47:40;11.80;71.90
8103;DHT22;4094;49.948;11.574;2023-02-24T07:50:11;11.80;71.90
8103;DHT22;4094;49.948;11.574;2023-02-24T07:52:45;11.80;71.90
8103;DHT22;4094;49.948;11.574;2023-02-24T07:55:15;11.80;71.90
8103;DHT22;4094;49.948;11.574;2023-02-24T07:57:46;11.80;71.90
8103;DHT22;4094;49.948;11.574;2023-02-24T08:00:18;11.80;72.00
8103;DHT22;4094;49.948;11.574;2023-02-24T08:02:49;11.80;71.90
8103;DHT22;4094;49.948;11.574;2023-02-24T08:05:20;11.80;71.90
8103;DHT22;4094;49.948;11.574;2023-02-24T08:07:52;11.80;71.90
8103;DHT22;4094;49.948;11.574;2023-02-24T08:10:23;11.80;72.00
8103;DHT22;4094;49.948;11.574;2023-02-24T08:12:56;11.80;72.80
8103;DHT22;4094;49.948;11.574;2023-02-24T08:15:31;11.90;71.90
8103;DHT22;4094;49.948;11.574;2023-02-24T08:18:03;11.90;71.80
8103;DHT22;4094;49.948;11.574;2023-02-24T08:20:32;11.90;71.90
8103;DHT22;4094;49.948;11.574;2023-02-24T08:23:19;11.90;71.80
8103;DHT22;4094;49.948;11.574;2023-02-24T08:25:50;12.00;71.90
8103;DHT22;4094;49.948;11.574;2023-02-24T08:28:20;12.00;72.00
8103;DHT22;4094;49.948;11.574;2023-02-24T08:30:54;12.00;71.90
8103;DHT22;4094;49.948;11.574;2023-02-24T08:33:23;12.00;71.60
8103;DHT22;4094;49.948;11.574;2023-02-24T08:35:56;12.00;71.70
8103;DHT22;4094;49.948;11.574;2023-02-24T08:38:31;12.00;71.60
8103;DHT22;4094;49.948;11.574;2023-02-24T08:41:13;12.10;71.30
8103;DHT22;4094;49.948;11.574;2023-02-24T08:43:46;12.10;71.00
8103;DHT22;4094;49.948;11.574;2023-02-24T08:46:18;12.10;71.00
8103;DHT22;4094;49.948;11.574;2023-02-24T08:48:54;12.10;71.00
8103;DHT22;4094;49.948;11.574;2023-02-24T08:51:26;12.10;70.90
8103;DHT22;4094;49.948;11.574;2023-02-24T08:53:58;12.10;70.70
8103;DHT22;4094;49.948;11.574;2023-02-24T08:56:28;12.10;71.00
8103;DHT22;4094;49.948;11.574;2023-02-24T08:59:03;12.20;70.80
8103;DHT22;4094;49.948;11.574;2023-02-24T09:01:37;12.20;70.80
8103;DHT22;4094;49.948;11.574;2023-02-24T09:04:08;12.20;70.60
8103;DHT22;4094;49.948;11.574;2023-02-24T09:06:40;12.20;70.70
8103;DHT22;4094;49.948;11.574;2023-02-24T09:09:14;12.30;70.60
8103;DHT22;4094;49.948;11.574;2023-02-24T09:11:50;12.30;70.70
8103;DHT22;4094;49.948;11.574;2023-02-24T09:14:25;12.30;70.50
8103;DHT22;4094;49.948;11.574;2023-02-24T09:16:58;12.30;70.50
8103;DHT22;4094;49.948;11.574;2023-02-24T09:19:34;12.30;70.20
8103;DHT22;4094;49.948;11.574;2023-02-24T09:22:25;12.30;70.00
8103;DHT22;4094;49.948;11.574;2023-02-24T09:25:02;12.40;69.80
8103;DHT22;4094;49.948;11.574;2023-02-24T09:27:49;12.40;69.70
8103;DHT22;4094;49.948;11.574;2023-02-24T09:30:26;12.30;69.20
8103;DHT22;4094;49.948;11.574;2023-02-24T09:33:18;12.30;69.00
8103;DHT22;4094;49.948;11.574;2023-02-24T09:35:53;12.30;68.80
8103;DHT22;4094;49.948;11.574;2023-02-24T09:38:29;12.30;68.90
8103;DHT22;4094;49.948;11.574;2023-02-24T09:41:37;12.30;68.80
8103;DHT22;4094;49.948;11.574;2023-02-24T09:44:28;12.30;68.80
8103;DHT22;4094;49.948;11.574;2023-02-24T09:47:05;12.30;68.40
8103;DHT22;4094;49.948;11.574;2023-02-24T09:49:47;12.30;68.30
8103;DHT22;4094;49.948;11.574;2023-02-24T09:52:25;12.30;68.40
8103;DHT22;4094;49.948;11.574;2023-02-24T09:55:15;12.30;68.40
8103;DHT22;4094;49.948;11.574;2023-02-24T09:57:58;12.40;68.20
8103;DHT22;4094;49.948;11.574;2023-02-24T10:00:52;12.40;67.90
8103;DHT22;4094;49.948;11.574;2023-02-24T10:03:28;12.30;67.60
8103;DHT22;4094;49.948;11.574;2023-02-24T10:06:15;12.40;67.50
8103;DHT22;4094;49.948;11.574;2023-02-24T10:08:51;12.40;67.50
8103;DHT22;4094;49.948;11.574;2023-02-24T10:11:22;12.40;67.40
8103;DHT22;4094;49.948;11.574;2023-02-24T10:14:02;12.30;67.50
8103;DHT22;4094;49.948;11.574;2023-02-24T10:16:38;12.40;67.60
8103;DHT22;4094;49.948;11.574;2023-02-24T10:19:22;12.40;67.50
8103;DHT22;4094;49.948;11.574;2023-02-24T10:21:59;12.40;67.60
8103;DHT22;4094;49.948;11.574;2023-02-24T10:24:36;12.40;66.90
8103;DHT22;4094;49.948;11.574;2023-02-24T10:27:12;12.40;67.10
8103;DHT22;4094;49.948;11.574;2023-02-24T10:29:51;12.50;67.30
8103;DHT22;4094;49.948;11.574;2023-02-24T10:32:35;12.50;67.40
8103;DHT22;4094;49.948;11.574;2023-02-24T10:35:13;12.50;66.70
8103;DHT22;4094;49.948;11.574;2023-02-24T10:37:44;12.50;66.60
8103;DHT22;4094;49.948;11.574;2023-02-24T10:40:14;12.50;66.70
8103;DHT22;4094;49.948;11.574;2023-02-24T10:43:03;12.40;67.10
8103;DHT22;4094;49.948;11.574;2023-02-24T10:45:39;12.50;66.70
8103;DHT22;4094;49.948;11.574;2023-02-24T10:48:17;12.50;66.50
8103;DHT22;4094;49.948;11.574;2023-02-24T10:51:12;12.50;66.50
8103;DHT22;4094;49.948;11.574;2023-02-24T10:53:49;12.50;66.50
8103;DHT22;4094;49.948;11.574;2023-02-24T10:56:41;12.60;66.50
8103;DHT22;4094;49.948;11.574;2023-02-24T10:59:22;12.60;66.10
8103;DHT22;4094;49.948;11.574;2023-02-24T11:02:25;12.70;66.40
8103;DHT22;4094;49.948;11.574;2023-02-24T11:05:06;12.70;66.30
8103;DHT22;4094;49.948;11.574;2023-02-24T11:08:06;12.80;65.30
8103;DHT22;4094;49.948;11.574;2023-02-24T11:10:40;12.80;64.60
8103;DHT22;4094;49.948;11.574;2023-02-24T11:13:20;12.80;64.90
8103;DHT22;4094;49.948;11.574;2023-02-24T11:16:07;12.80;65.10
8103;DHT22;4094;49.948;11.574;2023-02-24T11:18:56;12.80;65.00
8103;DHT22;4094;49.948;11.574;2023-02-24T11:21:26;12.80;64.80
8103;DHT22;4094;49.948;11.574;2023-02-24T11:23:56;12.80;64.50
8103;DHT22;4094;49.948;11.574;2023-02-24T11:26:34;12.70;64.20
8103;DHT22;4094;49.948;11.574;2023-02-24T11:29:24;12.70;64.20
8103;DHT22;4094;49.948;11.574;2023-02-24T11:32:07;12.80;64.00
8103;DHT22;4094;49.948;11.574;2023-02-24T11:34:45;12.80;65.10
8103;DHT22;4094;49.948;11.574;2023-02-24T11:37:28;12.80;64.20
8103;DHT22;4094;49.948;11.574;2023-02-24T11:40:05;12.90;65.10
8103;DHT22;4094;49.948;11.574;2023-02-24T11:42:41;12.90;64.20
8103;DHT22;4094;49.948;11.574;2023-02-24T11:45:22;12.90;63.70
8103;DHT22;4094;49.948;11.574;2023-02-24T11:47:56;13.00;63.50
8103;DHT22;4094;49.948;11.574;2023-02-24T11:50:34;13.00;63.60
8103;DHT22;4094;49.948;11.574;2023-02-24T11:53:17;13.00;63.30
8103;DHT22;4094;49.948;11.574;2023-02-24T11:55:53;13.00;62.70
8103;DHT22;4094;49.948;11.574;2023-02-24T11:58:33;13.00;63.10
8103;DHT22;4094;49.948;11.574;2023-02-24T12:01:09;13.00;62.90
8103;DHT22;4094;49.948;11.574;2023-02-24T12:03:48;13.00;62.60
8103;DHT22;4094;49.948;11.574;2023-02-24T12:06:21;13.00;62.70
8103;DHT22;4094;49.948;11.574;2023-02-24T12:08:55;13.00;62.70
8103;DHT22;4094;49.948;11.574;2023-02-24T12:11:38;13.00;62.70
8103;DHT22;4094;49.948;11.574;2023-02-24T12:14:20;13.00;63.60
8103;DHT22;4094;49.948;11.574;2023-02-24T12:16:57;13.00;62.60
8103;DHT22;4094;49.948;11.574;2023-02-24T12:19:32;13.00;62.90
8103;DHT22;4094;49.948;11.574;2023-02-24T12:22:08;13.00;62.50
8103;DHT22;4094;49.948;11.574;2023-02-24T12:24:41;13.00;62.40
8103;DHT22;4094;49.948;11.574;2023-02-24T12:27:23;13.00;61.80
8103;DHT22;4094;49.948;11.574;2023-02-24T12:30:04;13.00;61.30
8103;DHT22;4094;49.948;11.574;2023-02-24T12:32:59;13.00;61.40
8103;DHT22;4094;49.948;11.574;2023-02-24T12:35:34;12.90;61.10
8103;DHT22;4094;49.948;11.574;2023-02-24T12:38:29;12.90;61.40
8103;DHT22;4094;49.948;11.574;2023-02-24T12:41:12;12.80;61.60
8103;DHT22;4094;49.948;11.574;2023-02-24T12:43:48;12.80;60.90
8103;DHT22;4094;49.948;11.574;2023-02-24T12:46:27;12.80;60.60
8103;DHT22;4094;49.948;11.574;2023-02-24T12:49:13;12.80;60.90
8103;DHT22;4094;49.948;11.574;2023-02-24T12:51:55;12.70;60.40
8103;DHT22;4094;49.948;11.574;2023-02-24T12:54:31;12.70;60.60
8103;DHT22;4094;49.948;11.574;2023-02-24T12:57:06;12.70;60.70
8103;DHT22;4094;49.948;11.574;2023-02-24T12:59:39;12.70;61.20
8103;DHT22;4094;49.948;11.574;2023-02-24T13:02:15;12.60;60.80
8103;DHT22;4094;49.948;11.574;2023-02-24T13:04:53;12.60;61.00
8103;DHT22;4094;49.948;11.574;2023-02-24T13:07:41;12.60;60.30
8103;DHT22;4094;49.948;11.574;2023-02-24T13:10:21;12.60;60.20
8103;DHT22;4094;49.948;11.574;2023-02-24T13:12:59;12.60;60.70
8103;DHT22;4094;49.948;11.574;2023-02-24T13:15:30;12.60;61.00
8103;DHT22;4094;49.948;11.574;2023-02-24T13:18:01;12.60;60.50
8103;DHT22;4094;49.948;11.574;2023-02-24T13:20:32;12.60;60.70
8103;DHT22;4094;49.948;11.574;2023-02-24T13:23:18;12.60;60.80
8103;DHT22;4094;49.948;11.574;2023-02-24T13:25:50;12.60;60.70
8103;DHT22;4094;49.948;11.574;2023-02-24T13:28:24;12.60;60.50
8103;DHT22;4094;49.948;11.574;2023-02-24T13:30:57;12.60;60.00
8103;DHT22;4094;49.948;11.574;2023-02-24T13:33:31;12.60;60.30
8103;DHT22;4094;49.948;11.574;2023-02-24T13:36:12;12.70;60.60
8103;DHT22;4094;49.948;11.574;2023-02-24T13:38:42;12.70;60.50
8103;DHT22;4094;49.948;11.574;2023-02-24T13:44:26;12.70;60.50
8103;DHT22;4094;49.948;11.574;2023-02-24T13:50:04;12.80;60.50
8103;DHT22;4094;49.948;11.574;2023-02-24T13:52:51;12.80;60.20
8103;DHT22;4094;49.948;11.574;2023-02-24T13:55:37;12.90;59.70
8103;DHT22;4094;49.948;11.574;2023-02-24T13:58:25;12.90;59.40
8103;DHT22;4094;49.948;11.574;2023-02-24T14:01:05;12.90;59.50
8103;DHT22;4094;49.948;11.574;2023-02-24T14:03:37;13.00;59.20
8103;DHT22;4094;49.948;11.574;2023-02-24T14:06:15;13.00;58.90
8103;DHT22;4094;49.948;11.574;2023-02-24T14:08:48;13.00;58.60
8103;DHT22;4094;49.948;11.574;2023-02-24T14:11:24;13.00;58.70
8103;DHT22;4094;49.948;11.574;2023-02-24T14:13:56;13.10;58.40
8103;DHT22;4094;49.948;11.574;2023-02-24T14:16:28;13.10;58.60
8103;DHT22;4094;49.948;11.574;2023-02-24T14:19:00;13.10;58.00
8103;DHT22;4094;49.948;11.574;2023-02-24T14:21:32;13.10;57.40
8103;DHT22;4094;49.948;11.574;2023-02-24T14:24:03;13.00;57.80
8103;DHT22;4094;49.948;11.574;2023-02-24T14:26:36;13.00;57.80
8103;DHT22;4094;49.948;11.574;2023-02-24T14:29:09;13.00;57.90
8103;DHT22;4094;49.948;11.574;2023-02-24T14:31:40;13.00;57.90
8103;DHT22;4094;49.948;11.574;2023-02-24T14:34:16;12.90;58.00
8103;DHT22;4094;49.948;11.574;2023-02-24T14:36:48;13.00;57.90
8103;DHT22;4094;49.948;11.574;2023-02-24T14:39:20;13.00;57.90
8103;DHT22;4094;49.948;11.574;2023-02-24T14:41:51;13.00;57.70
8103;DHT22;4094;49.948;11.574;2023-02-24T14:44:30;13.00;57.90
8103;DHT22;4094;49.948;11.574;2023-02-24T14:47:03;13.00;57.90
8103;DHT22;4094;49.948;11.574;2023-02-24T14:49:34;13.00;57.80
8103;DHT22;4094;49.948;11.574;2023-02-24T14:52:08;13.00;57.70
8103;DHT22;4094;49.948;11.574;2023-02-24T14:54:42;13.00;57.70
8103;DHT22;4094;49.948;11.574;2023-02-24T14:57:17;13.00;57.80
8103;DHT22;4094;49.948;11.574;2023-02-24T14:59:49;13.00;57.60
8103;DHT22;4094;49.948;11.574;2023-02-24T15:02:23;13.00;57.40
8103;DHT22;4094;49.948;11.574;2023-02-24T15:04:55;13.00;57.00
8103;DHT22;4094;49.948;11.574;2023-02-24T15:07:28;13.00;57.00
8103;DHT22;4094;49.948;11.574;2023-02-24T15:09:59;13.00;56.90
8103;DHT22;4094;49.948;11.574;2023-02-24T15:12:31;13.00;57.20
8103;DHT22;4094;49.948;11.574;2023-02-24T15:15:03;13.00;57.20
8103;DHT22;4094;49.948;11.574;2023-02-24T15:17:38;12.90;56.90
8103;DHT22;4094;49.948;11.574;2023-02-24T15:20:26;12.90;56.60
8103;DHT22;4094;49.948;11.574;2023-02-24T15:22:57;12.90;56.50
8103;DHT22;4094;49.948;11.574;2023-02-24T15:25:28;12.80;56.70
8103;DHT22;4094;49.948;11.574;2023-02-24T15:28:21;12.80;56.40
8103;DHT22;4094;49.948;11.574;2023-02-24T15:30:57;12.80;56.70
8103;DHT22;4094;49.948;11.574;2023-02-24T15:33:32;12.70;56.50
8103;DHT22;4094;49.948;11.574;2023-02-24T15:36:07;12.70;56.50
8103;DHT22;4094;49.948;11.574;2023-02-24T15:38:40;12.60;56.20
8103;DHT22;4094;49.948;11.574;2023-02-24T15:41:11;12.60;56.60
8103;DHT22;4094;49.948;11.574;2023-02-24T15:43:45;12.60;56.40
8103;DHT22;4094;49.948;11.574;2023-02-24T15:46:21;12.60;56.20
8103;DHT22;4094;49.948;11.574;2023-02-24T15:48:52;12.60;56.40
8103;DHT22;4094;49.948;11.574;2023-02-24T15:51:31;12.50;56.80
8103;DHT22;4094;49.948;11.574;2023-02-24T15:54:03;12.50;56.60
8103;DHT22;4094;49.948;11.574;2023-02-24T15:56:34;12.50;56.20
8103;DHT22;4094;49.948;11.574;2023-02-24T15:59:03;12.50;56.00
8103;DHT22;4094;49.948;11.574;2023-02-24T16:01:33;12.50;56.40
8103;DHT22;4094;49.948;11.574;2023-02-24T16:04:02;12.40;55.60
8103;DHT22;4094;49.948;11.574;2023-02-24T16:06:32;12.40;55.80
8103;DHT22;4094;49.948;11.574;2023-02-24T16:09:04;12.30;55.90
8103;DHT22;4094;49.948;11.574;2023-02-24T16:11:36;12.30;55.90
8103;DHT22;4094;49.948;11.574;2023-02-24T16:14:11;12.30;55.60
8103;DHT22;4094;49.948;11.574;2023-02-24T16:16:41;12.30;55.90
8103;DHT22;4094;49.948;11.574;2023-02-24T16:19:13;12.20;55.80
8103;DHT22;4094;49.948;11.574;2023-02-24T16:21:42;12.20;55.70
8103;DHT22;4094;49.948;11.574;2023-02-24T16:24:12;12.20;55.60
8103;DHT22;4094;49.948;11.574;2023-02-24T16:26:42;12.20;55.30
8103;DHT22;4094;49.948;11.574;2023-02-24T16:29:13;12.20;55.20
8103;DHT22;4094;49.948;11.574;2023-02-24T16:31:42;12.20;55.10
8103;DHT22;4094;49.948;11.574;2023-02-24T16:34:14;12.10;55.00
8103;DHT22;4094;49.948;11.574;2023-02-24T16:36:43;12.10;54.70
8103;DHT22;4094;49.948;11.574;2023-02-24T16:39:15;12.10;54.70
8103;DHT22;4094;49.948;11.574;2023-02-24T16:41:44;12.00;55.30
8103;DHT22;4094;49.948;11.574;2023-02-24T16:44:14;12.00;55.10